sensor_id;sensor_type;location;lat;lon;timestamp;P1;durP1;ratioP1;P2;durP2;ratioP2
6356;SDS011;3211;53.452;-2.264;2022-07-23T00:00:35;8.27;;;6.70;;
6356;SDS011;3211;53.452;-2.264;2022-07-23T00:03:17;8.43;;;7.50;;
6356;SDS011;3211;53.452;-2.264;2022-07-23T00:05:59;9.67;;;7.30;;
6356;SDS011;3211;53.452;-2.264;2022-07-23T00:08:41;8.27;;;7.47;;
6356;SDS011;3211;53.452;-2.264;2022-07-23T00:11:24;11.40;;;7.57;;
6356;SDS011;3211;53.452;-2.264;2022-07-23T00:14:06;11.63;;;8.37;;
6356;SDS011;3211;53.452;-2.264;2022-07-23T00:16:48;8.80;;;7.90;;
6356;SDS011;3211;53.452;-2.264;2022-07-23T00:19:30;8.40;;;7.27;;
6356;SDS011;3211;53.452;-2.264;2022-07-23T00:22:12;9.10;;;7.77;;
6356;SDS011;3211;53.452;-2.264;2022-07-23T00:24:54;10.27;;;8.77;;
6356;SDS011;3211;53.452;-2.264;2022-07-23T00:27:37;9.03;;;8.13;;
6356;SDS011;3211;53.452;-2.264;2022-07-23T00:30:19;9.23;;;8.10;;
6356;SDS011;3211;53.452;-2.264;2022-07-23T00:33:02;8.97;;;7.90;;
6356;SDS011;3211;53.452;-2.264;2022-07-23T00:35:45;9.40;;;8.23;;
6356;SDS011;3211;53.452;-2.264;2022-07-23T00:38:27;10.27;;;9.20;;
6356;SDS011;3211;53.452;-2.264;2022-07-23T00:41:09;10.33;;;9.17;;
6356;SDS011;3211;53.452;-2.264;2022-07-23T00:43:53;12.90;;;10.13;;
6356;SDS011;3211;53.452;-2.264;2022-07-23T00:46:35;11.27;;;9.17;;
6356;SDS011;3211;53.452;-2.264;2022-07-23T00:49:17;12.73;;;9.50;;
6356;SDS011;3211;53.452;-2.264;2022-07-23T00:51:59;13.30;;;10.67;;
6356;SDS011;3211;53.452;-2.264;2022-07-23T00:54:43;11.97;;;10.00;;
6356;SDS011;3211;53.452;-2.264;2022-07-23T00:57:25;15.53;;;12.70;;
6356;SDS011;3211;53.452;-2.264;2022-07-23T01:00:09;15.97;;;11.17;;
6356;SDS011;3211;53.452;-2.264;2022-07-23T01:02:52;15.30;;;12.87;;
6356;SDS011;3211;53.452;-2.264;2022-07-23T01:05:34;14.90;;;12.37;;
6356;SDS011;3211;53.452;-2.264;2022-07-23T01:08:16;17.53;;;13.07;;
6356;SDS011;3211;53.452;-2.264;2022-07-23T01:10:58;14.03;;;11.60;;
6356;SDS011;3211;53.452;-2.264;2022-07-23T01:13:40;15.40;;;11.90;;
6356;SDS011;3211;53.452;-2.264;2022-07-23T01:16:25;16.90;;;12.97;;
6356;SDS011;3211;53.452;-2.264;2022-07-23T01:19:07;15.30;;;12.83;;
6356;SDS011;3211;53.452;-2.264;2022-07-23T01:21:50;16.40;;;13.30;;
6356;SDS011;3211;53.452;-2.264;2022-07-23T01:24:34;16.53;;;13.03;;
6356;SDS011;3211;53.452;-2.264;2022-07-23T01:27:16;17.53;;;12.67;;
6356;SDS011;3211;53.452;-2.264;2022-07-23T01:29:59;15.80;;;12.50;;
6356;SDS011;3211;53.452;-2.264;2022-07-23T01:32:42;18.50;;;13.03;;
6356;SDS011;3211;53.452;-2.264;2022-07-23T01:35:24;16.77;;;13.10;;
6356;SDS011;3211;53.452;-2.264;2022-07-23T01:38:05;19.97;;;13.43;;
6356;SDS011;3211;53.452;-2.264;2022-07-23T01:40:49;17.30;;;12.50;;
6356;SDS011;3211;53.452;-2.264;2022-07-23T01:43:31;15.80;;;12.33;;
6356;SDS011;3211;53.452;-2.264;2022-07-23T01:46:13;16.77;;;13.17;;
6356;SDS011;3211;53.452;-2.264;2022-07-23T01:48:55;16.27;;;14.43;;
6356;SDS011;3211;53.452;-2.264;2022-07-23T01:51:37;16.50;;;13.03;;
6356;SDS011;3211;53.452;-2.264;2022-07-23T01:54:39;17.70;;;13.03;;
6356;SDS011;3211;53.452;-2.264;2022-07-23T01:57:22;20.10;;;12.30;;
6356;SDS011;3211;53.452;-2.264;2022-07-23T02:00:04;17.20;;;13.53;;
6356;SDS011;3211;53.452;-2.264;2022-07-23T02:02:47;21.10;;;14.67;;
6356;SDS011;3211;53.452;-2.264;2022-07-23T02:05:29;19.57;;;13.27;;
6356;SDS011;3211;53.452;-2.264;2022-07-23T02:08:12;19.20;;;13.33;;
6356;SDS011;3211;53.452;-2.264;2022-07-23T02:10:54;20.17;;;12.90;;
6356;SDS011;3211;53.452;-2.264;2022-07-23T02:13:38;18.33;;;13.90;;
6356;SDS011;3211;53.452;-2.264;2022-07-23T02:16:20;17.60;;;12.73;;
6356;SDS011;3211;53.452;-2.264;2022-07-23T02:19:02;19.03;;;12.70;;
6356;SDS011;3211;53.452;-2.264;2022-07-23T02:21:44;19.93;;;12.60;;
6356;SDS011;3211;53.452;-2.264;2022-07-23T02:24:26;16.90;;;12.57;;
6356;SDS011;3211;53.452;-2.264;2022-07-23T02:27:08;18.10;;;11.83;;
6356;SDS011;3211;53.452;-2.264;2022-07-23T02:29:51;18.37;;;13.47;;
6356;SDS011;3211;53.452;-2.264;2022-07-23T02:32:33;19.03;;;11.40;;
6356;SDS011;3211;53.452;-2.264;2022-07-23T02:35:15;18.17;;;12.27;;
6356;SDS011;3211;53.452;-2.264;2022-07-23T02:37:57;19.07;;;12.40;;
6356;SDS011;3211;53.452;-2.264;2022-07-23T02:40:39;18.33;;;12.40;;
6356;SDS011;3211;53.452;-2.264;2022-07-23T02:43:21;18.50;;;12.80;;
6356;SDS011;3211;53.452;-2.264;2022-07-23T02:46:04;18.90;;;13.33;;
6356;SDS011;3211;53.452;-2.264;2022-07-23T02:48:47;18.17;;;13.10;;
6356;SDS011;3211;53.452;-2.264;2022-07-23T02:51:29;23.50;;;12.33;;
6356;SDS011;3211;53.452;-2.264;2022-07-23T02:54:11;17.60;;;11.60;;
6356;SDS011;3211;53.452;-2.264;2022-07-23T02:56:53;19.33;;;11.90;;
6356;SDS011;3211;53.452;-2.264;2022-07-23T02:59:35;19.80;;;12.70;;
6356;SDS011;3211;53.452;-2.264;2022-07-23T03:02:18;13.83;;;10.90;;
6356;SDS011;3211;53.452;-2.264;2022-07-23T03:05:00;16.73;;;11.30;;
6356;SDS011;3211;53.452;-2.264;2022-07-23T03:07:42;14.50;;;10.77;;
6356;SDS011;3211;53.452;-2.264;2022-07-23T03:10:25;14.67;;;11.47;;
6356;SDS011;3211;53.452;-2.264;2022-07-23T03:13:07;16.40;;;11.17;;
6356;SDS011;3211;53.452;-2.264;2022-07-23T03:15:49;14.67;;;10.50;;
6356;SDS011;3211;53.452;-2.264;2022-07-23T03:18:32;19.90;;;10.83;;
6356;SDS011;3211;53.452;-2.264;2022-07-23T03:21:14;17.30;;;10.50;;
6356;SDS011;3211;53.452;-2.264;2022-07-23T03:23:56;16.37;;;9.80;;
6356;SDS011;3211;53.452;-2.264;2022-07-23T03:26:38;17.80;;;10.97;;
6356;SDS011;3211;53.452;-2.264;2022-07-23T03:29:20;16.90;;;10.27;;
6356;SDS011;3211;53.452;-2.264;2022-07-23T03:32:02;14.80;;;10.47;;
6356;SDS011;3211;53.452;-2.264;2022-07-23T03:34:46;15.63;;;11.10;;
6356;SDS011;3211;53.452;-2.264;2022-07-23T03:37:28;15.37;;;10.47;;
6356;SDS011;3211;53.452;-2.264;2022-07-23T03:40:11;15.17;;;10.30;;
6356;SDS011;3211;53.452;-2.264;2022-07-23T03:42:53;12.37;;;10.27;;
6356;SDS011;3211;53.452;-2.264;2022-07-23T03:45:35;15.10;;;9.93;;
6356;SDS011;3211;53.452;-2.264;2022-07-23T03:48:17;14.70;;;9.73;;
6356;SDS011;3211;53.452;-2.264;2022-07-23T03:51:00;13.13;;;9.83;;
6356;SDS011;3211;53.452;-2.264;2022-07-23T03:53:42;12.67;;;9.70;;
6356;SDS011;3211;53.452;-2.264;2022-07-23T03:56:24;14.67;;;10.50;;
6356;SDS011;3211;53.452;-2.264;2022-07-23T03:59:06;15.40;;;10.50;;
6356;SDS011;3211;53.452;-2.264;2022-07-23T04:01:48;15.27;;;10.70;;
6356;SDS011;3211;53.452;-2.264;2022-07-23T04:04:30;13.40;;;9.33;;
6356;SDS011;3211;53.452;-2.264;2022-07-23T04:07:15;13.50;;;9.20;;
6356;SDS011;3211;53.452;-2.264;2022-07-23T04:09:57;15.70;;;9.70;;
6356;SDS011;3211;53.452;-2.264;2022-07-23T04:12:39;15.40;;;8.80;;
6356;SDS011;3211;53.452;-2.264;2022-07-23T04:15:21;12.37;;;9.80;;
6356;SDS011;3211;53.452;-2.264;2022-07-23T04:18:03;14.60;;;9.77;;
6356;SDS011;3211;53.452;-2.264;2022-07-23T04:20:45;11.80;;;8.83;;
6356;SDS011;3211;53.452;-2.264;2022-07-23T04:23:29;12.87;;;9.63;;
6356;SDS011;3211;53.452;-2.264;2022-07-23T04:26:11;11.90;;;9.30;;
6356;SDS011;3211;53.452;-2.264;2022-07-23T04:28:53;14.37;;;9.10;;
6356;SDS011;3211;53.452;-2.264;2022-07-23T04:31:34;13.73;;;9.40;;
6356;SDS011;3211;53.452;-2.264;2022-07-23T04:34:16;13.23;;;9.43;;
6356;SDS011;3211;53.452;-2.264;2022-07-23T04:36:58;20.80;;;9.83;;
6356;SDS011;3211;53.452;-2.264;2022-07-23T04:39:42;12.40;;;9.20;;
6356;SDS011;3211;53.452;-2.264;2022-07-23T04:42:24;15.43;;;9.13;;
6356;SDS011;3211;53.452;-2.264;2022-07-23T04:45:07;14.40;;;9.80;;
6356;SDS011;3211;53.452;-2.264;2022-07-23T04:47:49;18.10;;;10.23;;
6356;SDS011;3211;53.452;-2.264;2022-07-23T04:50:31;12.07;;;9.13;;
6356;SDS011;3211;53.452;-2.264;2022-07-23T04:53:13;17.00;;;9.97;;
6356;SDS011;3211;53.452;-2.264;2022-07-23T04:55:56;13.03;;;9.60;;
6356;SDS011;3211;53.452;-2.264;2022-07-23T04:58:38;18.40;;;10.30;;
6356;SDS011;3211;53.452;-2.264;2022-07-23T05:01:20;16.63;;;10.00;;
6356;SDS011;3211;53.452;-2.264;2022-07-23T05:04:02;18.97;;;10.47;;
6356;SDS011;3211;53.452;-2.264;2022-07-23T05:06:44;15.97;;;10.73;;
6356;SDS011;3211;53.452;-2.264;2022-07-23T05:09:26;15.27;;;10.27;;
6356;SDS011;3211;53.452;-2.264;2022-07-23T05:12:10;20.60;;;10.83;;
6356;SDS011;3211;53.452;-2.264;2022-07-23T05:14:52;17.20;;;11.10;;
6356;SDS011;3211;53.452;-2.264;2022-07-23T05:17:34;17.10;;;11.80;;
6356;SDS011;3211;53.452;-2.264;2022-07-23T05:20:15;19.40;;;10.40;;
6356;SDS011;3211;53.452;-2.264;2022-07-23T05:22:58;17.30;;;12.73;;
6356;SDS011;3211;53.452;-2.264;2022-07-23T05:25:40;17.47;;;12.17;;
6356;SDS011;3211;53.452;-2.264;2022-07-23T05:28:23;16.10;;;9.83;;
6356;SDS011;3211;53.452;-2.264;2022-07-23T05:31:05;18.07;;;11.97;;
6356;SDS011;3211;53.452;-2.264;2022-07-23T05:33:47;17.77;;;10.77;;
6356;SDS011;3211;53.452;-2.264;2022-07-23T05:36:30;15.73;;;11.10;;
6356;SDS011;3211;53.452;-2.264;2022-07-23T05:39:12;16.20;;;10.87;;
6356;SDS011;3211;53.452;-2.264;2022-07-23T05:41:54;16.87;;;11.20;;
6356;SDS011;3211;53.452;-2.264;2022-07-23T05:44:38;18.53;;;12.80;;
6356;SDS011;3211;53.452;-2.264;2022-07-23T05:47:20;20.70;;;13.30;;
6356;SDS011;3211;53.452;-2.264;2022-07-23T05:50:03;19.23;;;11.73;;
6356;SDS011;3211;53.452;-2.264;2022-07-23T05:52:45;15.30;;;11.03;;
6356;SDS011;3211;53.452;-2.264;2022-07-23T05:55:27;18.77;;;10.93;;
6356;SDS011;3211;53.452;-2.264;2022-07-23T05:58:11;21.33;;;12.13;;
6356;SDS011;3211;53.452;-2.264;2022-07-23T06:00:54;20.97;;;13.27;;
6356;SDS011;3211;53.452;-2.264;2022-07-23T06:03:37;19.93;;;13.50;;
6356;SDS011;3211;53.452;-2.264;2022-07-23T06:06:19;18.27;;;12.73;;
6356;SDS011;3211;53.452;-2.264;2022-07-23T06:09:01;23.77;;;14.83;;
6356;SDS011;3211;53.452;-2.264;2022-07-23T06:11:43;18.60;;;13.80;;
6356;SDS011;3211;53.452;-2.264;2022-07-23T06:14:25;21.77;;;15.80;;
6356;SDS011;3211;53.452;-2.264;2022-07-23T06:17:08;24.30;;;14.10;;
6356;SDS011;3211;53.452;-2.264;2022-07-23T06:19:50;18.20;;;14.00;;
6356;SDS011;3211;53.452;-2.264;2022-07-23T06:22:32;19.93;;;14.40;;
6356;SDS011;3211;53.452;-2.264;2022-07-23T06:25:14;21.27;;;14.43;;
6356;SDS011;3211;53.452;-2.264;2022-07-23T06:27:56;19.37;;;13.50;;
6356;SDS011;3211;53.452;-2.264;2022-07-23T06:30:38;29.30;;;17.83;;
6356;SDS011;3211;53.452;-2.264;2022-07-23T06:33:22;21.00;;;14.17;;
6356;SDS011;3211;53.452;-2.264;2022-07-23T06:36:04;22.23;;;15.43;;
6356;SDS011;3211;53.452;-2.264;2022-07-23T06:38:46;29.13;;;15.80;;
6356;SDS011;3211;53.452;-2.264;2022-07-23T06:41:28;24.63;;;15.50;;
6356;SDS011;3211;53.452;-2.264;2022-07-23T06:44:10;22.10;;;15.77;;
6356;SDS011;3211;53.452;-2.264;2022-07-23T06:46:52;19.07;;;14.33;;
6356;SDS011;3211;53.452;-2.264;2022-07-23T06:49:35;20.80;;;15.17;;
6356;SDS011;3211;53.452;-2.264;2022-07-23T06:52:17;17.70;;;12.77;;
6356;SDS011;3211;53.452;-2.264;2022-07-23T06:54:59;21.23;;;13.20;;
6356;SDS011;3211;53.452;-2.264;2022-07-23T06:57:41;18.50;;;13.17;;
6356;SDS011;3211;53.452;-2.264;2022-07-23T07:00:23;16.03;;;12.10;;
6356;SDS011;3211;53.452;-2.264;2022-07-23T07:03:06;16.80;;;12.67;;
6356;SDS011;3211;53.452;-2.264;2022-07-23T07:05:49;14.30;;;12.33;;
6356;SDS011;3211;53.452;-2.264;2022-07-23T07:08:32;19.63;;;13.20;;
6356;SDS011;3211;53.452;-2.264;2022-07-23T07:11:14;19.00;;;12.70;;
6356;SDS011;3211;53.452;-2.264;2022-07-23T07:13:56;18.90;;;12.50;;
6356;SDS011;3211;53.452;-2.264;2022-07-23T07:16:38;16.73;;;11.37;;
6356;SDS011;3211;53.452;-2.264;2022-07-23T07:19:19;18.13;;;12.07;;
6356;SDS011;3211;53.452;-2.264;2022-07-23T07:22:03;18.93;;;10.90;;
6356;SDS011;3211;53.452;-2.264;2022-07-23T07:24:45;18.73;;;11.00;;
6356;SDS011;3211;53.452;-2.264;2022-07-23T07:27:27;17.17;;;10.87;;
6356;SDS011;3211;53.452;-2.264;2022-07-23T07:30:09;12.07;;;9.63;;
6356;SDS011;3211;53.452;-2.264;2022-07-23T07:32:52;19.87;;;11.10;;
6356;SDS011;3211;53.452;-2.264;2022-07-23T07:35:34;14.07;;;10.40;;
6356;SDS011;3211;53.452;-2.264;2022-07-23T07:38:17;15.00;;;10.43;;
6356;SDS011;3211;53.452;-2.264;2022-07-23T07:40:59;15.37;;;9.83;;
6356;SDS011;3211;53.452;-2.264;2022-07-23T07:43:41;14.60;;;10.20;;
6356;SDS011;3211;53.452;-2.264;2022-07-23T07:46:23;14.70;;;9.90;;
6356;SDS011;3211;53.452;-2.264;2022-07-23T07:49:07;14.13;;;10.37;;
6356;SDS011;3211;53.452;-2.264;2022-07-23T07:51:49;16.33;;;10.50;;
6356;SDS011;3211;53.452;-2.264;2022-07-23T07:54:33;12.37;;;9.70;;
6356;SDS011;3211;53.452;-2.264;2022-07-23T07:57:14;16.20;;;11.33;;
6356;SDS011;3211;53.452;-2.264;2022-07-23T07:59:56;13.60;;;10.00;;
6356;SDS011;3211;53.452;-2.264;2022-07-23T08:02:40;12.73;;;9.43;;
6356;SDS011;3211;53.452;-2.264;2022-07-23T08:05:23;14.87;;;10.53;;
6356;SDS011;3211;53.452;-2.264;2022-07-23T08:08:06;13.03;;;10.67;;
6356;SDS011;3211;53.452;-2.264;2022-07-23T08:10:51;13.70;;;10.90;;
6356;SDS011;3211;53.452;-2.264;2022-07-23T08:13:33;15.93;;;10.77;;
6356;SDS011;3211;53.452;-2.264;2022-07-23T08:16:18;19.80;;;11.37;;
6356;SDS011;3211;53.452;-2.264;2022-07-23T08:19:04;14.27;;;10.33;;
6356;SDS011;3211;53.452;-2.264;2022-07-23T08:21:46;14.60;;;10.87;;
6356;SDS011;3211;53.452;-2.264;2022-07-23T08:24:28;23.87;;;11.07;;
6356;SDS011;3211;53.452;-2.264;2022-07-23T08:27:11;14.87;;;10.70;;
6356;SDS011;3211;53.452;-2.264;2022-07-23T08:29:53;17.30;;;11.20;;
6356;SDS011;3211;53.452;-2.264;2022-07-23T08:32:47;14.67;;;10.73;;
6356;SDS011;3211;53.452;-2.264;2022-07-23T08:35:30;19.00;;;12.43;;
6356;SDS011;3211;53.452;-2.264;2022-07-23T08:38:14;16.43;;;11.90;;
6356;SDS011;3211;53.452;-2.264;2022-07-23T08:40:57;16.73;;;12.90;;
6356;SDS011;3211;53.452;-2.264;2022-07-23T08:43:40;17.50;;;12.37;;
6356;SDS011;3211;53.452;-2.264;2022-07-23T08:46:23;20.50;;;13.30;;
6356;SDS011;3211;53.452;-2.264;2022-07-23T08:49:05;18.50;;;13.13;;
6356;SDS011;3211;53.452;-2.264;2022-07-23T08:51:48;17.43;;;12.30;;
6356;SDS011;3211;53.452;-2.264;2022-07-23T08:54:30;16.80;;;12.30;;
6356;SDS011;3211;53.452;-2.264;2022-07-23T08:57:12;19.63;;;12.37;;
6356;SDS011;3211;53.452;-2.264;2022-07-23T08:59:58;16.03;;;11.80;;
6356;SDS011;3211;53.452;-2.264;2022-07-23T09:02:40;19.40;;;12.33;;
6356;SDS011;3211;53.452;-2.264;2022-07-23T09:05:23;15.20;;;10.47;;
6356;SDS011;3211;53.452;-2.264;2022-07-23T09:08:06;19.30;;;11.03;;
6356;SDS011;3211;53.452;-2.264;2022-07-23T09:10:50;13.20;;;9.60;;
6356;SDS011;3211;53.452;-2.264;2022-07-23T09:13:36;19.50;;;10.70;;
6356;SDS011;3211;53.452;-2.264;2022-07-23T09:16:24;17.90;;;11.40;;
6356;SDS011;3211;53.452;-2.264;2022-07-23T09:19:08;14.90;;;10.70;;
6356;SDS011;3211;53.452;-2.264;2022-07-23T09:21:52;16.37;;;12.00;;
6356;SDS011;3211;53.452;-2.264;2022-07-23T09:24:34;17.20;;;12.23;;
6356;SDS011;3211;53.452;-2.264;2022-07-23T09:27:16;14.03;;;11.40;;
6356;SDS011;3211;53.452;-2.264;2022-07-23T09:29:58;16.40;;;13.07;;
6356;SDS011;3211;53.452;-2.264;2022-07-23T09:32:41;15.80;;;12.63;;
6356;SDS011;3211;53.452;-2.264;2022-07-23T09:35:25;14.97;;;12.23;;
6356;SDS011;3211;53.452;-2.264;2022-07-23T09:38:25;12.70;;;9.20;;
6356;SDS011;3211;53.452;-2.264;2022-07-23T09:41:07;14.73;;;8.23;;
6356;SDS011;3211;53.452;-2.264;2022-07-23T09:43:56;9.70;;;7.90;;
6356;SDS011;3211;53.452;-2.264;2022-07-23T09:46:41;10.40;;;7.87;;
6356;SDS011;3211;53.452;-2.264;2022-07-23T09:49:25;9.60;;;7.97;;
6356;SDS011;3211;53.452;-2.264;2022-07-23T09:52:06;13.33;;;8.63;;
6356;SDS011;3211;53.452;-2.264;2022-07-23T09:54:48;11.93;;;8.33;;
6356;SDS011;3211;53.452;-2.264;2022-07-23T09:57:40;10.20;;;7.30;;
6356;SDS011;3211;53.452;-2.264;2022-07-23T10:00:24;10.00;;;6.30;;
6356;SDS011;3211;53.452;-2.264;2022-07-23T10:03:07;4.57;;;4.07;;
6356;SDS011;3211;53.452;-2.264;2022-07-23T10:05:52;5.43;;;4.07;;
6356;SDS011;3211;53.452;-2.264;2022-07-23T10:08:34;7.13;;;4.20;;
6356;SDS011;3211;53.452;-2.264;2022-07-23T10:11:16;6.10;;;3.77;;
6356;SDS011;3211;53.452;-2.264;2022-07-23T10:13:58;3.70;;;3.17;;
6356;SDS011;3211;53.452;-2.264;2022-07-23T10:16:41;4.77;;;2.77;;
6356;SDS011;3211;53.452;-2.264;2022-07-23T10:19:24;4.33;;;3.07;;
6356;SDS011;3211;53.452;-2.264;2022-07-23T10:22:08;4.60;;;2.77;;
6356;SDS011;3211;53.452;-2.264;2022-07-23T10:24:55;4.17;;;2.70;;
6356;SDS011;3211;53.452;-2.264;2022-07-23T10:27:51;3.20;;;2.47;;
6356;SDS011;3211;53.452;-2.264;2022-07-23T10:30:49;3.40;;;2.57;;
6356;SDS011;3211;53.452;-2.264;2022-07-23T10:33:41;2.73;;;2.33;;
6356;SDS011;3211;53.452;-2.264;2022-07-23T10:36:31;3.03;;;2.43;;
6356;SDS011;3211;53.452;-2.264;2022-07-23T10:39:32;2.97;;;2.67;;
6356;SDS011;3211;53.452;-2.264;2022-07-23T10:42:16;3.17;;;2.37;;
6356;SDS011;3211;53.452;-2.264;2022-07-23T10:44:59;3.73;;;2.10;;
6356;SDS011;3211;53.452;-2.264;2022-07-23T10:47:41;3.00;;;2.63;;
6356;SDS011;3211;53.452;-2.264;2022-07-23T10:50:24;2.53;;;2.33;;
6356;SDS011;3211;53.452;-2.264;2022-07-23T10:53:08;2.60;;;2.20;;
6356;SDS011;3211;53.452;-2.264;2022-07-23T10:55:54;3.47;;;2.60;;
6356;SDS011;3211;53.452;-2.264;2022-07-23T10:58:46;2.67;;;2.20;;
6356;SDS011;3211;53.452;-2.264;2022-07-23T11:01:33;3.50;;;2.83;;
6356;SDS011;3211;53.452;-2.264;2022-07-23T11:04:16;3.17;;;2.87;;
6356;SDS011;3211;53.452;-2.264;2022-07-23T11:07:07;4.87;;;2.67;;
6356;SDS011;3211;53.452;-2.264;2022-07-23T11:09:52;5.43;;;3.97;;
6356;SDS011;3211;53.452;-2.264;2022-07-23T11:12:36;2.60;;;2.20;;
6356;SDS011;3211;53.452;-2.264;2022-07-23T11:15:18;6.70;;;2.77;;
6356;SDS011;3211;53.452;-2.264;2022-07-23T11:17:59;2.57;;;2.10;;
6356;SDS011;3211;53.452;-2.264;2022-07-23T11:20:41;2.60;;;2.10;;
6356;SDS011;3211;53.452;-2.264;2022-07-23T11:23:24;2.40;;;1.80;;
6356;SDS011;3211;53.452;-2.264;2022-07-23T11:26:46;2.00;;;1.80;;
6356;SDS011;3211;53.452;-2.264;2022-07-23T11:29:47;2.43;;;2.23;;
6356;SDS011;3211;53.452;-2.264;2022-07-23T11:32:33;2.40;;;2.20;;
6356;SDS011;3211;53.452;-2.264;2022-07-23T11:35:23;2.73;;;2.50;;
6356;SDS011;3211;53.452;-2.264;2022-07-23T11:38:13;3.30;;;2.60;;
6356;SDS011;3211;53.452;-2.264;2022-07-23T11:40:56;4.67;;;2.60;;
6356;SDS011;3211;53.452;-2.264;2022-07-23T11:43:38;4.40;;;2.70;;
6356;SDS011;3211;53.452;-2.264;2022-07-23T11:46:21;3.00;;;2.70;;
6356;SDS011;3211;53.452;-2.264;2022-07-23T11:49:03;2.65;;;2.45;;
6356;SDS011;3211;53.452;-2.264;2022-07-23T11:51:45;3.13;;;2.57;;
6356;SDS011;3211;53.452;-2.264;2022-07-23T11:54:27;5.37;;;3.13;;
6356;SDS011;3211;53.452;-2.264;2022-07-23T11:57:09;3.93;;;3.23;;
6356;SDS011;3211;53.452;-2.264;2022-07-23T11:59:52;5.27;;;3.10;;
6356;SDS011;3211;53.452;-2.264;2022-07-23T12:02:37;4.27;;;3.87;;
6356;SDS011;3211;53.452;-2.264;2022-07-23T12:05:20;4.50;;;3.30;;
6356;SDS011;3211;53.452;-2.264;2022-07-23T12:08:03;3.23;;;2.93;;
6356;SDS011;3211;53.452;-2.264;2022-07-23T12:10:46;4.60;;;2.50;;
6356;SDS011;3211;53.452;-2.264;2022-07-23T12:13:28;3.70;;;3.33;;
6356;SDS011;3211;53.452;-2.264;2022-07-23T12:16:10;3.87;;;2.87;;
6356;SDS011;3211;53.452;-2.264;2022-07-23T12:18:53;6.23;;;3.30;;
6356;SDS011;3211;53.452;-2.264;2022-07-23T12:21:37;3.17;;;2.70;;
6356;SDS011;3211;53.452;-2.264;2022-07-23T12:24:19;3.80;;;2.70;;
6356;SDS011;3211;53.452;-2.264;2022-07-23T12:27:07;3.00;;;2.70;;
6356;SDS011;3211;53.452;-2.264;2022-07-23T12:29:50;2.67;;;2.47;;
6356;SDS011;3211;53.452;-2.264;2022-07-23T12:32:32;3.60;;;2.53;;
6356;SDS011;3211;53.452;-2.264;2022-07-23T12:35:15;3.33;;;2.90;;
6356;SDS011;3211;53.452;-2.264;2022-07-23T12:38:00;3.10;;;2.80;;
6356;SDS011;3211;53.452;-2.264;2022-07-23T12:40:43;3.40;;;3.10;;
6356;SDS011;3211;53.452;-2.264;2022-07-23T12:43:27;3.37;;;2.67;;
6356;SDS011;3211;53.452;-2.264;2022-07-23T12:46:12;2.97;;;2.70;;
6356;SDS011;3211;53.452;-2.264;2022-07-23T12:48:55;4.63;;;2.93;;
6356;SDS011;3211;53.452;-2.264;2022-07-23T12:51:39;2.90;;;2.70;;
6356;SDS011;3211;53.452;-2.264;2022-07-23T12:54:26;3.57;;;3.27;;
6356;SDS011;3211;53.452;-2.264;2022-07-23T12:57:09;4.27;;;2.93;;
6356;SDS011;3211;53.452;-2.264;2022-07-23T12:59:51;3.90;;;3.50;;
6356;SDS011;3211;53.452;-2.264;2022-07-23T13:02:44;4.03;;;3.63;;
6356;SDS011;3211;53.452;-2.264;2022-07-23T13:05:27;3.90;;;3.53;;
6356;SDS011;3211;53.452;-2.264;2022-07-23T13:08:10;3.87;;;3.47;;
6356;SDS011;3211;53.452;-2.264;2022-07-23T13:10:52;3.97;;;3.30;;
6356;SDS011;3211;53.452;-2.264;2022-07-23T13:13:35;3.63;;;3.33;;
6356;SDS011;3211;53.452;-2.264;2022-07-23T13:16:17;5.70;;;3.40;;
6356;SDS011;3211;53.452;-2.264;2022-07-23T13:19:00;5.50;;;3.53;;
6356;SDS011;3211;53.452;-2.264;2022-07-23T13:21:42;3.40;;;3.03;;
6356;SDS011;3211;53.452;-2.264;2022-07-23T13:24:25;4.10;;;3.73;;
6356;SDS011;3211;53.452;-2.264;2022-07-23T13:27:07;4.83;;;3.63;;
6356;SDS011;3211;53.452;-2.264;2022-07-23T13:29:49;6.53;;;3.60;;
6356;SDS011;3211;53.452;-2.264;2022-07-23T13:32:31;4.30;;;3.70;;
6356;SDS011;3211;53.452;-2.264;2022-07-23T13:35:13;4.53;;;4.13;;
6356;SDS011;3211;53.452;-2.264;2022-07-23T13:37:55;4.80;;;3.57;;
6356;SDS011;3211;53.452;-2.264;2022-07-23T13:40:39;3.67;;;3.23;;
6356;SDS011;3211;53.452;-2.264;2022-07-23T13:43:24;4.17;;;3.43;;
6356;SDS011;3211;53.452;-2.264;2022-07-23T13:46:06;4.73;;;3.27;;
6356;SDS011;3211;53.452;-2.264;2022-07-23T13:48:48;4.03;;;3.73;;
6356;SDS011;3211;53.452;-2.264;2022-07-23T13:51:30;3.87;;;3.47;;
6356;SDS011;3211;53.452;-2.264;2022-07-23T13:54:12;5.10;;;3.93;;
6356;SDS011;3211;53.452;-2.264;2022-07-23T13:56:56;7.00;;;4.17;;
6356;SDS011;3211;53.452;-2.264;2022-07-23T13:59:38;4.30;;;3.83;;
6356;SDS011;3211;53.452;-2.264;2022-07-23T14:02:20;5.37;;;4.87;;
6356;SDS011;3211;53.452;-2.264;2022-07-23T14:05:02;6.03;;;3.90;;
6356;SDS011;3211;53.452;-2.264;2022-07-23T14:07:45;5.23;;;4.17;;
6356;SDS011;3211;53.452;-2.264;2022-07-23T14:10:29;4.50;;;4.10;;
6356;SDS011;3211;53.452;-2.264;2022-07-23T14:13:13;6.77;;;4.10;;
6356;SDS011;3211;53.452;-2.264;2022-07-23T14:15:55;5.00;;;4.53;;
6356;SDS011;3211;53.452;-2.264;2022-07-23T14:18:40;5.73;;;4.20;;
6356;SDS011;3211;53.452;-2.264;2022-07-23T14:21:22;5.07;;;3.80;;
6356;SDS011;3211;53.452;-2.264;2022-07-23T14:24:04;6.37;;;3.93;;
6356;SDS011;3211;53.452;-2.264;2022-07-23T14:26:47;6.50;;;4.57;;
6356;SDS011;3211;53.452;-2.264;2022-07-23T14:29:30;5.60;;;4.90;;
6356;SDS011;3211;53.452;-2.264;2022-07-23T14:32:12;4.80;;;4.40;;
6356;SDS011;3211;53.452;-2.264;2022-07-23T14:34:54;5.43;;;4.00;;
6356;SDS011;3211;53.452;-2.264;2022-07-23T14:37:36;5.13;;;4.47;;
6356;SDS011;3211;53.452;-2.264;2022-07-23T14:40:20;5.50;;;4.50;;
6356;SDS011;3211;53.452;-2.264;2022-07-23T14:43:02;5.30;;;4.30;;
6356;SDS011;3211;53.452;-2.264;2022-07-23T14:45:46;5.73;;;4.73;;
6356;SDS011;3211;53.452;-2.264;2022-07-23T14:48:28;7.23;;;4.33;;
6356;SDS011;3211;53.452;-2.264;2022-07-23T14:51:10;5.23;;;4.57;;
6356;SDS011;3211;53.452;-2.264;2022-07-23T14:53:52;6.13;;;4.70;;
6356;SDS011;3211;53.452;-2.264;2022-07-23T14:56:34;9.03;;;4.80;;
6356;SDS011;3211;53.452;-2.264;2022-07-23T14:59:16;5.93;;;4.90;;
6356;SDS011;3211;53.452;-2.264;2022-07-23T15:01:59;6.13;;;5.20;;
6356;SDS011;3211;53.452;-2.264;2022-07-23T15:04:41;5.00;;;4.50;;
6356;SDS011;3211;53.452;-2.264;2022-07-23T15:07:23;8.50;;;3.83;;
6356;SDS011;3211;53.452;-2.264;2022-07-23T15:10:06;4.77;;;4.23;;
6356;SDS011;3211;53.452;-2.264;2022-07-23T15:12:48;5.20;;;4.37;;
6356;SDS011;3211;53.452;-2.264;2022-07-23T15:15:30;4.50;;;4.10;;
6356;SDS011;3211;53.452;-2.264;2022-07-23T15:18:14;5.17;;;3.80;;
6356;SDS011;3211;53.452;-2.264;2022-07-23T15:20:56;4.53;;;3.37;;
6356;SDS011;3211;53.452;-2.264;2022-07-23T15:23:38;3.20;;;2.90;;
6356;SDS011;3211;53.452;-2.264;2022-07-23T15:26:20;4.73;;;3.13;;
6356;SDS011;3211;53.452;-2.264;2022-07-23T15:29:03;4.20;;;3.30;;
6356;SDS011;3211;53.452;-2.264;2022-07-23T15:31:46;3.60;;;3.20;;
6356;SDS011;3211;53.452;-2.264;2022-07-23T15:34:29;3.90;;;2.77;;
6356;SDS011;3211;53.452;-2.264;2022-07-23T15:37:12;3.53;;;3.13;;
6356;SDS011;3211;53.452;-2.264;2022-07-23T15:39:54;2.77;;;2.53;;
6356;SDS011;3211;53.452;-2.264;2022-07-23T15:42:36;5.30;;;3.50;;
6356;SDS011;3211;53.452;-2.264;2022-07-23T15:45:18;3.77;;;2.93;;
6356;SDS011;3211;53.452;-2.264;2022-07-23T15:48:00;3.70;;;3.20;;
6356;SDS011;3211;53.452;-2.264;2022-07-23T15:50:43;3.77;;;3.00;;
6356;SDS011;3211;53.452;-2.264;2022-07-23T15:53:25;4.07;;;3.63;;
6356;SDS011;3211;53.452;-2.264;2022-07-23T15:56:08;6.50;;;3.90;;
6356;SDS011;3211;53.452;-2.264;2022-07-23T15:58:51;5.50;;;4.07;;
6356;SDS011;3211;53.452;-2.264;2022-07-23T16:01:33;4.00;;;3.27;;
6356;SDS011;3211;53.452;-2.264;2022-07-23T16:04:15;5.57;;;3.80;;
6356;SDS011;3211;53.452;-2.264;2022-07-23T16:06:58;3.90;;;3.60;;
6356;SDS011;3211;53.452;-2.264;2022-07-23T16:09:40;3.97;;;3.47;;
6356;SDS011;3211;53.452;-2.264;2022-07-23T16:12:22;3.93;;;3.00;;
6356;SDS011;3211;53.452;-2.264;2022-07-23T16:15:04;5.37;;;3.40;;
6356;SDS011;3211;53.452;-2.264;2022-07-23T16:17:47;4.57;;;3.70;;
6356;SDS011;3211;53.452;-2.264;2022-07-23T16:20:29;3.93;;;3.33;;
6356;SDS011;3211;53.452;-2.264;2022-07-23T16:23:12;4.50;;;3.33;;